Time;durP1;ratioP1;P1;durP2;ratioP2;P2;SDS_P1;SDS_P2;PMS_P1;PMS_P2;Temp;Humidity;BMP_temperature;BMP_pressure;BME280_temperature;BME280_humidity;BME280_pressure;Samples;Min_cycle;Max_cycle;Signal;HPM_P1;HPM_P2
2021/06/03 00:01:59;;;;;;;12.43;7.78;;;256.50;2252.80;;;;;;4970530;28;20027;-72
2021/06/03 00:04:25;;;;;;;12.02;7.80;;;256.50;2252.80;;;;;;4969181;28;20080;-72
2021/06/03 00:06:50;;;;;;;10.15;7.05;;;256.50;2252.80;;;;;;4970545;28;20019;-73
2021/06/03 00:09:17;;;;;;;12.27;7.18;;;256.50;2252.80;;;;;;4970416;28;20495;-72
2021/06/03 00:11:43;;;;;;;12.43;7.32;;;256.40;2252.80;;;;;;4969091;28;20027;-72
2021/06/03 00:14:09;;;;;;;13.05;7.35;;;256.40;2252.80;;;;;;4970387;28;20080;-72
2021/06/03 00:16:35;;;;;;;11.68;6.90;;;256.40;2252.80;;;;;;4970382;28;20035;-71
2021/06/03 00:19:05;;;;;;;12.00;6.93;;;256.30;2252.80;;;;;;4970176;28;20023;-71
2021/06/03 00:21:31;;;;;;;12.90;7.65;;;256.20;2252.80;;;;;;4970818;28;20443;-72
2021/06/03 00:23:57;;;;;;;15.20;7.07;;;256.20;2252.80;;;;;;4970342;28;20073;-72
2021/06/03 00:26:23;;;;;;;12.95;7.30;;;256.20;2252.80;;;;;;4970242;28;20481;-72
2021/06/03 00:28:49;;;;;;;13.00;7.28;;;256.10;2252.80;;;;;;4970278;28;20224;-71
2021/06/03 00:31:15;;;;;;;15.25;7.82;;;256.10;2252.80;;;;;;4970268;28;20163;-72
2021/06/03 00:33:41;;;;;;;19.23;11.20;;;256.10;2252.80;;;;;;4970235;28;20027;-72
2021/06/03 00:36:08;;;;;;;18.77;10.13;;;256.10;2252.80;;;;;;4956650;28;20460;-71
2021/06/03 00:38:34;;;;;;;24.80;11.85;;;256.00;2252.80;;;;;;4970183;28;20030;-72
2021/06/03 00:41:00;;;;;;;20.85;11.25;;;256.00;2252.80;;;;;;4969837;28;20019;-71
2021/06/03 00:43:26;;;;;;;23.08;12.65;;;231.30;2252.80;;;;;;4970117;28;20030;-71
2021/06/03 00:45:52;;;;;;;22.58;11.95;;;231.20;2252.80;;;;;;4972192;28;20050;-71
2021/06/03 00:48:18;;;;;;;20.58;11.27;;;231.20;2252.80;;;;;;4973248;28;20462;-72
2021/06/03 00:50:51;;;;;;;22.40;11.98;;;231.20;2252.80;;;;;;4973343;28;20088;-71
2021/06/03 00:53:18;;;;;;;24.15;13.20;;;231.20;2252.80;;;;;;4973617;28;20416;-71
2021/06/03 00:55:56;;;;;;;18.52;10.52;;;231.20;2252.80;;;;;;4973421;28;20027;-72
2021/06/03 00:58:22;;;;;;;15.57;8.98;;;231.20;2252.80;;;;;;4973195;28;20022;-72
2021/06/03 01:00:50;;;;;;;15.45;8.68;;;231.00;2252.80;;;;;;4973134;28;20033;-72
2021/06/03 01:03:16;;;;;;;17.60;9.88;;;230.90;2252.80;;;;;;4973008;28;20027;-72
2021/06/03 01:05:48;;;;;;;17.90;10.75;;;231.00;2252.80;;;;;;4973315;28;20027;-71
2021/06/03 01:08:17;;;;;;;26.58;14.48;;;231.00;2252.80;;;;;;4972892;28;20027;-72
2021/06/03 01:10:55;;;;;;;28.92;13.48;;;230.90;2252.80;;;;;;4972913;28;20038;-72
2021/06/03 01:13:49;;;;;;;28.77;14.73;;;230.90;2252.80;;;;;;4971463;28;20027;-80
2021/06/03 01:16:16;;;;;;;25.65;13.60;;;230.90;2252.80;;;;;;4972489;28;20405;-77
2021/06/03 01:18:43;;;;;;;34.10;16.00;;;230.90;2252.80;;;;;;4972669;28;20034;-69
2021/06/03 01:21:31;;;;;;;26.17;14.70;;;230.90;2252.80;;;;;;4972842;28;20098;-72
2021/06/03 01:24:11;;;;;;;25.00;13.80;;;230.90;2252.80;;;;;;4971762;28;20042;-72
2021/06/03 01:26:37;;;;;;;24.70;14.00;;;230.90;2252.80;;;;;;4972641;28;20050;-72
2021/06/03 01:29:03;;;;;;;22.42;13.30;;;230.90;2252.80;;;;;;4972792;28;20066;-72
2021/06/03 01:31:30;;;;;;;19.92;11.52;;;230.80;2252.80;;;;;;4972587;28;20027;-72
2021/06/03 01:33:56;;;;;;;19.80;11.68;;;230.80;2252.80;;;;;;4972556;28;20019;-72
2021/06/03 01:36:22;;;;;;;17.63;10.32;;;230.80;2252.80;;;;;;4972619;28;20045;-71
2021/06/03 01:38:48;;;;;;;17.13;10.05;;;230.80;2252.80;;;;;;4972384;28;20027;-71
2021/06/03 01:41:14;;;;;;;17.67;10.48;;;230.80;2252.80;;;;;;4972643;28;20043;-72
2021/06/03 01:43:44;;;;;;;13.65;9.73;;;230.80;2252.80;;;;;;4971195;28;20026;-75
2021/06/03 01:46:10;;;;;;;14.85;9.75;;;230.80;2252.80;;;;;;4972499;28;20043;-75
2021/06/03 01:48:36;;;;;;;13.52;9.27;;;230.80;2252.80;;;;;;4972233;28;20038;-72
2021/06/03 01:51:04;;;;;;;15.13;8.50;;;230.80;2252.80;;;;;;4972567;28;20393;-75
2021/06/03 01:53:30;;;;;;;13.10;8.52;;;230.70;2252.80;;;;;;4972371;28;20027;-75
2021/06/03 01:56:02;;;;;;;14.23;9.02;;;230.70;2252.80;;;;;;4971723;28;20512;-72
2021/06/03 01:58:29;;;;;;;13.77;7.93;;;230.70;2252.80;;;;;;4972015;28;20097;-72
2021/06/03 02:00:55;;;;;;;12.85;8.60;;;230.70;2252.80;;;;;;4972181;28;20034;-72
2021/06/03 02:03:25;;;;;;;11.68;8.50;;;230.70;2252.80;;;;;;4972310;28;20030;-72
2021/06/03 02:05:51;;;;;;;10.90;7.90;;;230.60;2252.80;;;;;;4986984;28;20476;-72
2021/06/03 02:08:17;;;;;;;11.25;7.05;;;230.60;2252.80;;;;;;4972458;28;20116;-71
2021/06/03 02:10:44;;;;;;;11.68;6.95;;;230.50;2252.80;;;;;;4972375;28;20027;-71
2021/06/03 02:13:25;;;;;;;10.23;7.10;;;230.50;2252.80;;;;;;4971943;28;20027;-71
2021/06/03 02:16:07;;;;;;;10.23;6.95;;;230.40;2252.80;;;;;;4971952;28;20023;-71
2021/06/03 02:18:39;;;;;;;10.40;7.38;;;205.70;2252.80;;;;;;4971999;28;20027;-72
2021/06/03 02:21:06;;;;;;;10.73;6.43;;;205.70;2252.80;;;;;;4986884;28;20061;-72
2021/06/03 02:23:33;;;;;;;11.13;7.13;;;205.60;2252.80;;;;;;4971848;28;20034;-71
2021/06/03 02:26:02;;;;;;;9.23;6.90;;;205.50;2252.80;;;;;;4971896;28;20471;-72
2021/06/03 02:28:32;;;;;;;10.30;7.38;;;205.50;2252.80;;;;;;4971725;28;20034;-72
2021/06/03 02:30:59;;;;;;;9.47;6.87;;;205.50;2252.80;;;;;;4971826;28;20473;-72
2021/06/03 02:33:27;;;;;;;10.10;7.15;;;205.50;2252.80;;;;;;4971635;28;20025;-72
2021/06/03 02:35:52;;;;;;;10.80;7.10;;;205.40;2252.80;;;;;;4971760;28;20568;-73
2021/06/03 02:38:30;;;;;;;12.57;7.40;;;205.40;2252.80;;;;;;4971542;28;20109;-72
2021/06/03 02:41:03;;;;;;;11.90;7.20;;;205.30;2252.80;;;;;;4971402;28;20022;-73
2021/06/03 02:43:29;;;;;;;13.77;7.72;;;205.30;2252.80;;;;;;4971882;28;20035;-72
2021/06/03 02:45:55;;;;;;;14.40;8.27;;;205.30;2252.80;;;;;;4971644;28;20057;-72
2021/06/03 02:48:21;;;;;;;15.88;8.43;;;205.30;2252.80;;;;;;4971518;28;20063;-71
2021/06/03 02:50:47;;;;;;;25.73;12.85;;;205.30;2252.80;;;;;;4971434;28;20023;-71
2021/06/03 02:53:14;;;;;;;23.85;12.25;;;205.30;2252.80;;;;;;4971531;28;20042;-71
2021/06/03 02:55:41;;;;;;;25.83;12.43;;;205.30;2252.80;;;;;;4971243;28;20019;-71
2021/06/03 02:58:08;;;;;;;26.88;11.80;;;205.30;2252.80;;;;;;4971441;28;20027;-72
2021/06/03 03:00:34;;;;;;;20.45;11.00;;;205.20;2252.80;;;;;;4971184;28;20453;-71
2021/06/03 03:03:02;;;;;;;13.43;8.65;;;205.20;2252.80;;;;;;4971322;28;20037;-70
2021/06/03 03:05:29;;;;;;;14.85;8.15;;;205.20;2252.80;;;;;;4971478;28;20027;-71
2021/06/03 03:07:55;;;;;;;16.40;8.93;;;205.20;2252.80;;;;;;4971254;28;20031;-72
2021/06/03 03:10:42;;;;;;;14.27;8.38;;;205.20;2252.80;;;;;;4971472;28;20079;-72
2021/06/03 03:13:09;;;;;;;15.73;9.15;;;205.30;2252.80;;;;;;4971127;28;20038;-71
2021/06/03 03:15:36;;;;;;;14.38;8.90;;;205.30;2252.80;;;;;;4971152;28;20030;-71
2021/06/03 03:18:02;;;;;;;42.65;18.75;;;205.30;2252.80;;;;;;4971049;28;20051;-71
2021/06/03 03:20:29;;;;;;;29.08;23.27;;;205.30;2252.80;;;;;;4971049;28;20027;-71
2021/06/03 03:22:55;;;;;;;15.93;10.63;;;205.30;2252.80;;;;;;4971195;28;20026;-72
2021/06/03 03:25:23;;;;;;;18.17;11.82;;;205.40;2252.80;;;;;;4971061;28;20026;-71
2021/06/03 03:27:50;;;;;;;15.27;8.93;;;205.40;2252.80;;;;;;4971091;28;20106;-71
2021/06/03 03:30:18;;;;;;;13.68;8.48;;;205.50;2252.80;;;;;;4970772;28;20023;-72
2021/06/03 03:32:45;;;;;;;13.32;8.98;;;205.60;2252.80;;;;;;4970996;28;20073;-71
2021/06/03 03:35:11;;;;;;;12.65;7.97;;;205.60;2252.80;;;;;;4970795;28;20102;-71
2021/06/03 03:37:41;;;;;;;10.57;7.63;;;205.70;2252.80;;;;;;4970964;28;20027;-71
2021/06/03 03:40:10;;;;;;;15.95;9.70;;;230.40;2252.80;;;;;;4970758;28;20506;-72
2021/06/03 03:42:36;;;;;;;15.25;9.50;;;230.50;2252.80;;;;;;4970771;28;20113;-71
2021/06/03 03:45:03;;;;;;;16.45;8.65;;;230.60;2252.80;;;;;;4970807;28;20573;-73
2021/06/03 03:47:29;;;;;;;13.70;8.32;;;230.80;2252.80;;;;;;4970828;28;20080;-71
2021/06/03 03:49:56;;;;;;;16.40;9.35;;;230.80;2252.80;;;;;;4970791;28;20030;-73
2021/06/03 03:52:22;;;;;;;16.75;9.77;;;230.90;2252.80;;;;;;4970598;28;20018;-72
2021/06/03 03:54:47;;;;;;;13.65;8.30;;;231.00;2252.80;;;;;;4970724;28;20110;-72
2021/06/03 03:57:14;;;;;;;12.90;7.55;;;231.10;2252.80;;;;;;4970506;28;20076;-71
2021/06/03 03:59:40;;;;;;;11.25;7.25;;;231.10;2252.80;;;;;;4970784;28;20042;-71
2021/06/03 04:02:05;;;;;;;13.15;7.15;;;231.20;2252.80;;;;;;4970173;28;20031;-71
2021/06/03 04:04:31;;;;;;;11.07;6.65;;;231.20;2252.80;;;;;;4970501;28;20023;-73
2021/06/03 04:06:57;;;;;;;11.23;7.10;;;231.30;2252.80;;;;;;4970561;28;20076;-73
2021/06/03 04:09:24;;;;;;;11.00;6.90;;;231.30;2252.80;;;;;;4970359;28;20053;-72
2021/06/03 04:11:49;;;;;;;12.05;6.90;;;256.10;2252.80;;;;;;4970448;28;20102;-71
2021/06/03 04:14:15;;;;;;;11.20;6.78;;;256.20;2252.80;;;;;;4970292;28;20575;-72
2021/06/03 04:16:41;;;;;;;10.77;6.70;;;256.20;2252.80;;;;;;4970617;28;20035;-71
2021/06/03 04:19:07;;;;;;;10.23;6.15;;;256.30;2252.80;;;;;;4970194;28;20366;-71
2021/06/03 04:21:33;;;;;;;14.40;6.57;;;256.30;2252.80;;;;;;4973385;28;20022;-71
2021/06/03 04:23:59;;;;;;;10.15;6.35;;;256.40;2252.80;;;;;;4973700;28;20027;-75
2021/06/03 04:26:25;;;;;;;9.60;6.38;;;256.60;2252.80;;;;;;4972344;28;20076;-76
2021/06/03 04:28:51;;;;;;;9.95;6.30;;;256.80;2252.80;;;;;;4974050;28;20027;-72
2021/06/03 04:31:17;;;;;;;8.65;6.47;;;256.90;2252.80;;;;;;4973726;28;20088;-72
2021/06/03 04:33:43;;;;;;;10.02;6.53;;;281.60;2278.40;;;;;;4973523;28;20443;-71
2021/06/03 04:36:08;;;;;;;8.45;6.13;;;281.70;2278.40;;;;;;4973615;28;20065;-71
2021/06/03 04:38:35;;;;;;;11.68;6.60;;;281.90;2278.40;;;;;;4973660;28;20046;-71
2021/06/03 04:41:01;;;;;;;9.18;6.30;;;282.00;2278.40;;;;;;4973486;28;20081;-70
2021/06/03 04:43:27;;;;;;;8.93;6.25;;;282.10;2278.40;;;;;;4973290;28;20044;-71
2021/06/03 04:45:53;;;;;;;9.13;6.30;;;282.30;2278.40;;;;;;4973408;28;20033;-71
2021/06/03 04:48:19;;;;;;;8.63;6.28;;;282.50;2278.40;;;;;;4973286;28;20019;-71
2021/06/03 04:50:46;;;;;;;12.02;6.78;;;307.20;2304.00;;;;;;4973540;28;20076;-70
2021/06/03 04:53:13;;;;;;;11.30;6.32;;;307.30;2304.00;;;;;;4973174;28;20027;-72
2021/06/03 04:55:39;;;;;;;10.82;6.30;;;307.40;2304.00;;;;;;4973278;28;20077;-72
2021/06/03 04:58:06;;;;;;;11.60;6.43;;;307.60;2304.00;;;;;;4973300;28;20031;-72
2021/06/03 05:00:34;;;;;;;8.20;6.05;;;307.70;2304.00;;;;;;4972954;28;20485;-72
2021/06/03 05:03:01;;;;;;;8.80;6.30;;;307.90;2304.00;;;;;;4973180;28;20031;-72
2021/06/03 05:05:28;;;;;;;7.63;5.57;;;308.10;2304.00;;;;;;4973055;28;20153;-72
2021/06/03 05:07:54;;;;;;;8.27;5.95;;;332.90;2329.60;;;;;;4973011;28;20023;-75
2021/06/03 05:10:20;;;;;;;8.57;6.03;;;333.00;2329.60;;;;;;4973102;28;20030;-76
2021/06/03 05:12:47;;;;;;;10.80;6.20;;;333.20;2329.60;;;;;;4972964;28;20030;-76
2021/06/03 05:15:14;;;;;;;9.23;6.40;;;333.30;2329.60;;;;;;4973033;28;20135;-76
2021/06/03 05:17:40;;;;;;;9.05;6.55;;;333.40;2329.60;;;;;;4972757;28;20019;-72
2021/06/03 05:20:10;;;;;;;9.30;6.55;;;333.60;2329.60;;;;;;4972907;28;20034;-72
2021/06/03 05:22:37;;;;;;;13.35;7.35;;;333.70;2329.60;;;;;;4972753;28;20444;-72
2021/06/03 05:25:08;;;;;;;12.60;7.40;;;358.40;2329.60;;;;;;4972976;28;20037;-72
2021/06/03 05:27:34;;;;;;;17.30;7.90;;;358.60;2329.60;;;;;;4963491;28;20030;-72
2021/06/03 05:30:01;;;;;;;17.05;7.70;;;358.50;2329.60;;;;;;4972700;28;20037;-73
2021/06/03 05:32:26;;;;;;;19.65;7.10;;;358.60;2329.60;;;;;;4971419;28;20077;-72
2021/06/03 05:34:52;;;;;;;17.30;7.95;;;358.90;2329.60;;;;;;4972611;28;20027;-72
2021/06/03 05:37:18;;;;;;;16.00;7.50;;;358.90;2329.60;;;;;;4972489;28;20092;-72
2021/06/03 05:39:45;;;;;;;22.42;11.43;;;359.10;2329.60;;;;;;4972495;28;20027;-72
2021/06/03 05:42:10;;;;;;;11.65;7.28;;;359.30;2329.60;;;;;;4972059;28;20538;-72
2021/06/03 05:44:36;;;;;;;11.52;7.50;;;359.30;2329.60;;;;;;4972464;28;20101;-72
2021/06/03 05:47:02;;;;;;;11.23;7.57;;;384.10;2329.60;;;;;;4972331;28;20030;-72
2021/06/03 05:49:28;;;;;;;10.05;6.82;;;384.30;2329.60;;;;;;4972380;28;20034;-72
2021/06/03 05:51:55;;;;;;;10.88;7.40;;;384.60;2329.60;;;;;;4972150;28;20023;-72
2021/06/03 05:54:21;;;;;;;9.43;6.75;;;384.20;2329.60;;;;;;4972282;28;20015;-72
2021/06/03 05:56:46;;;;;;;22.17;15.13;;;384.00;2329.60;;;;;;4972217;28;20038;-72
2021/06/03 05:59:13;;;;;;;16.20;11.98;;;384.60;2329.60;;;;;;4970652;28;20037;-72
2021/06/03 06:01:38;;;;;;;10.05;7.20;;;384.90;2329.60;;;;;;4972267;28;20027;-72
2021/06/03 06:06:31;;;;;;;12.52;6.80;;;410.00;2355.20;;;;;;4972374;28;20488;-72
2021/06/03 06:08:59;;;;;;;11.18;7.03;;;410.00;2355.20;;;;;;4971831;28;20378;-72
2021/06/03 06:11:27;;;;;;;10.02;6.75;;;410.30;2355.20;;;;;;4971850;28;20057;-73
2021/06/03 06:13:52;;;;;;;8.63;6.65;;;410.50;2355.20;;;;;;4971617;28;20031;-72
2021/06/03 06:16:19;;;;;;;13.85;9.05;;;435.40;2355.20;;;;;;4971679;28;20049;-72
2021/06/03 06:18:45;;;;;;;9.85;7.35;;;435.20;2355.20;;;;;;4971562;28;20041;-72
2021/06/03 06:21:14;;;;;;;12.82;7.75;;;435.20;2355.20;;;;;;4971853;28;20019;-73
2021/06/03 06:23:40;;;;;;;11.18;7.20;;;435.50;2355.20;;;;;;4997303;28;20021;-72
2021/06/03 06:26:08;;;;;;;10.18;6.70;;;435.70;2355.20;;;;;;5003642;28;20030;-72
2021/06/03 06:28:34;;;;;;;9.27;7.18;;;436.00;2355.20;;;;;;4971714;28;20358;-73
2021/06/03 06:31:01;;;;;;;9.65;6.53;;;436.00;2355.20;;;;;;4971890;28;20030;-73
2021/06/03 06:33:27;;;;;;;8.88;6.53;;;460.90;2380.80;;;;;;4971592;28;20098;-72
2021/06/03 06:35:53;;;;;;;11.38;6.45;;;461.10;2380.80;;;;;;4971873;28;20054;-71
2021/06/03 06:38:20;;;;;;;9.85;6.55;;;461.40;2380.80;;;;;;4972040;28;20034;-73
2021/06/03 06:40:47;;;;;;;9.63;6.50;;;461.60;2380.80;;;;;;4971345;28;20023;-72
2021/06/03 06:43:13;;;;;;;11.88;6.25;;;486.40;2380.80;;;;;;4971276;28;20035;-72
2021/06/03 06:45:39;;;;;;;9.85;6.47;;;486.50;2380.80;;;;;;4971510;28;20048;-76
2021/06/03 06:48:07;;;;;;;10.73;6.75;;;486.60;2380.80;;;;;;4971483;28;20492;-73
2021/06/03 06:50:35;;;;;;;11.43;6.60;;;486.80;2380.80;;;;;;4971464;28;20046;-73
2021/06/03 06:53:02;;;;;;;9.38;6.13;;;487.00;2380.80;;;;;;4971619;28;20592;-72
2021/06/03 06:55:28;;;;;;;9.27;6.38;;;487.10;2380.80;;;;;;4971235;28;20051;-72
2021/06/03 06:57:55;;;;;;;10.25;6.13;;;487.30;2380.80;;;;;;4971806;28;20073;-73
2021/06/03 07:00:22;;;;;;;9.00;5.75;;;512.10;2380.80;;;;;;4971416;28;20042;-72
2021/06/03 07:02:48;;;;;;;8.43;5.40;;;512.30;2380.80;;;;;;4971713;28;20427;-73
2021/06/03 07:05:15;;;;;;;7.55;5.47;;;512.40;2380.80;;;;;;4971584;28;20102;-73
2021/06/03 07:07:42;;;;;;;7.20;5.32;;;512.40;2380.80;;;;;;4971042;28;20037;-72
2021/06/03 07:10:08;;;;;;;7.78;5.22;;;512.30;2380.80;;;;;;4968041;28;20042;-72
2021/06/03 07:12:35;;;;;;;10.05;5.75;;;512.60;2380.80;;;;;;4955455;28;20026;-71
2021/06/03 07:15:01;;;;;;;8.40;5.45;;;512.70;2380.80;;;;;;4952961;28;20023;-74
2021/06/03 07:17:27;;;;;;;12.15;5.80;;;512.90;2380.80;;;;;;4953957;28;20346;-73
2021/06/03 07:19:53;;;;;;;8.43;4.90;;;537.80;2406.40;;;;;;4959320;28;20027;-72
2021/06/03 07:22:19;;;;;;;8.10;4.97;;;538.00;2406.40;;;;;;4970952;28;20031;-73
2021/06/03 07:24:45;;;;;;;6.45;5.20;;;538.10;2406.40;;;;;;4970244;28;20030;-71
2021/06/03 07:27:11;;;;;;;8.65;4.90;;;538.20;2406.40;;;;;;4970620;28;20061;-71
2021/06/03 07:29:37;;;;;;;8.25;5.03;;;538.40;2406.40;;;;;;4971017;28;20110;-73
2021/06/03 07:32:04;;;;;;;7.32;5.22;;;538.40;2406.40;;;;;;4970716;28;20022;-73
2021/06/03 07:34:30;;;;;;;8.90;6.00;;;538.40;2406.40;;;;;;4970152;28;20030;-76
2021/06/03 07:36:56;;;;;;;18.05;14.05;;;538.50;2406.40;;;;;;4954803;28;20037;-73
2021/06/03 07:39:22;;;;;;;9.43;7.20;;;563.30;2432.00;;;;;;4951285;28;20023;-73
2021/06/03 07:41:49;;;;;;;8.20;5.20;;;563.30;2432.00;;;;;;4952362;28;20043;-73
2021/06/03 07:44:15;;;;;;;6.63;4.90;;;563.20;2406.40;;;;;;4959894;28;20490;-73
2021/06/03 07:46:41;;;;;;;65.90;9.32;;;563.30;2432.00;;;;;;4970687;28;20082;-70
2021/06/03 07:49:10;;;;;;;10.18;5.57;;;563.50;2432.00;;;;;;4971268;28;20030;-73
2021/06/03 07:51:36;;;;;;;11.63;5.55;;;563.60;2432.00;;;;;;4970846;28;20034;-71
2021/06/03 07:54:01;;;;;;;10.27;5.10;;;563.80;2432.00;;;;;;4970596;28;20030;-73
2021/06/03 07:56:27;;;;;;;18.95;5.90;;;563.80;2380.80;;;;;;4971879;28;20068;-76
2021/06/03 07:58:53;;;;;;;18.83;5.55;;;563.90;2355.20;;;;;;4970651;28;20045;-71
2021/06/03 08:01:18;;;;;;;18.75;5.50;;;564.00;2329.60;;;;;;4970646;28;20022;-74
2021/06/03 08:03:44;;;;;;;15.27;5.13;;;564.10;2304.00;;;;;;4969515;28;20023;-73
2021/06/03 08:06:10;;;;;;;9.40;4.82;;;588.90;2304.00;;;;;;4971685;28;20077;-71
2021/06/03 08:08:36;;;;;;;11.05;4.65;;;589.10;2201.60;;;;;;4955628;28;20023;-72
2021/06/03 08:11:06;;;;;;;22.30;6.40;;;589.10;2176.00;;;;;;4958399;28;20088;-73
2021/06/03 08:13:36;;;;;;;22.50;10.23;;;588.90;2176.00;;;;;;4954452;28;20026;-71
2021/06/03 08:16:02;;;;;;;12.45;5.57;;;589.00;2150.40;;;;;;4969805;28;20031;-71
2021/06/03 08:18:28;;;;;;;9.02;4.30;;;589.10;2201.60;;;;;;4971765;28;20035;-72
2021/06/03 08:20:57;;;;;;;9.18;4.30;;;589.30;2150.40;;;;;;4972801;28;20488;-76
2021/06/03 08:23:25;;;;;;;11.73;6.10;;;589.40;2099.20;;;;;;4973256;28;20080;-76
2021/06/03 08:25:51;;;;;;;7.78;5.25;;;589.40;2099.20;;;;;;4962642;28;20024;-71
2021/06/03 08:28:17;;;;;;;9.02;4.45;;;589.50;2099.20;;;;;;4955219;28;20032;-75
2021/06/03 08:30:44;;;;;;;8.05;3.70;;;589.60;2048.00;;;;;;4962252;28;20035;-76
2021/06/03 08:33:10;;;;;;;9.52;3.58;;;589.70;1996.80;;;;;;4972235;28;20038;-73
2021/06/03 08:35:37;;;;;;;6.93;3.80;;;589.70;1996.80;;;;;;4973227;28;20027;-75
2021/06/03 08:38:06;;;;;;;7.15;3.92;;;589.70;1971.20;;;;;;4973101;28;20477;-72
2021/06/03 08:40:37;;;;;;;7.82;3.88;;;614.40;1996.80;;;;;;4973392;28;20491;-72
2021/06/03 08:43:05;;;;;;;6.00;3.83;;;614.40;1920.00;;;;;;4973158;28;20035;-72
2021/06/03 08:45:33;;;;;;;9.57;5.43;;;614.50;1920.00;;;;;;4971144;28;20031;-74
2021/06/03 08:47:59;;;;;;;8.27;3.67;;;614.50;1920.00;;;;;;4955700;28;20024;-75
2021/06/03 08:50:29;;;;;;;6.15;3.50;;;614.60;1868.80;;;;;;4956038;28;20105;-81
2021/06/03 08:52:56;;;;;;;6.03;3.28;;;614.60;1817.60;;;;;;4960824;28;20054;-77
2021/06/03 08:58:10;;;;;;;4.72;3.13;;;614.60;1817.60;;;;;;4972744;28;20495;-74
2021/06/03 09:00:37;;;;;;;8.90;3.20;;;614.60;1792.00;;;;;;4971470;28;20034;-73
2021/06/03 09:03:04;;;;;;;4.57;3.10;;;614.70;1766.40;;;;;;4972864;28;20027;-77
2021/06/03 09:05:30;;;;;;;6.38;3.25;;;614.60;1740.80;;;;;;4972822;28;20025;-72
2021/06/03 09:07:56;;;;;;;5.68;3.10;;;614.60;1766.40;;;;;;4973297;28;20098;-73
2021/06/03 09:10:29;;;;;;;5.15;3.30;;;614.70;1766.40;;;;;;4970002;28;20035;-72
2021/06/03 09:13:19;;;;;;;7.63;3.00;;;614.80;1715.20;;;;;;4955831;28;20073;-73
2021/06/03 09:15:48;;;;;;;4.03;2.70;;;614.50;1664.00;;;;;;4954928;28;20065;-72
2021/06/03 09:18:14;;;;;;;6.03;3.90;;;614.60;1689.60;;;;;;4959283;28;20065;-72
2021/06/03 09:20:44;;;;;;;6.53;4.00;;;614.80;1638.40;;;;;;4958513;28;20038;-72
2021/06/03 09:23:31;;;;;;;7.50;3.50;;;614.80;1689.60;;;;;;4970292;28;20540;-72
2021/06/03 09:25:59;;;;;;;7.05;4.00;;;615.00;1664.00;;;;;;4972346;28;20554;-72
2021/06/03 09:28:29;;;;;;;5.60;3.45;;;615.00;1664.00;;;;;;4972339;28;20022;-72
2021/06/03 09:31:05;;;;;;;7.00;3.80;;;615.10;1612.80;;;;;;4972396;28;20027;-73
2021/06/03 09:33:39;;;;;;;5.82;3.00;;;640.10;1638.40;;;;;;4970243;28;20039;-72
2021/06/03 09:36:07;;;;;;;4.70;2.97;;;640.20;1638.40;;;;;;4954323;28;20023;-72
2021/06/03 09:38:34;;;;;;;5.28;2.90;;;640.30;1612.80;;;;;;4969732;28;20054;-73
2021/06/03 09:41:00;;;;;;;5.15;2.85;;;640.20;1587.20;;;;;;4971713;28;20385;-71
2021/06/03 09:43:26;;;;;;;5.75;3.63;;;640.20;1587.20;;;;;;4971816;28;20307;-74
2021/06/03 09:45:53;;;;;;;5.15;2.90;;;640.20;1561.60;;;;;;4959977;28;20054;-73
2021/06/03 09:48:44;;;;;;;8.25;2.90;;;640.20;1561.60;;;;;;4971182;28;20098;-73
2021/06/03 09:51:24;;;;;;;6.30;2.70;;;640.50;1587.20;;;;;;4968776;28;20027;-73
2021/06/03 09:54:07;;;;;;;5.13;2.78;;;640.40;1561.60;;;;;;4971970;28;20023;-75
2021/06/03 09:56:38;;;;;;;5.35;2.80;;;640.40;1536.00;;;;;;4970699;28;20128;-74
2021/06/03 09:59:04;;;;;;;;;;;640.00;1536.00;;;;;;4971725;28;20038;-75
2021/06/03 10:01:42;;;;;;;6.35;2.80;;;640.10;1561.60;;;;;;4971768;28;19914;-74
2021/06/03 10:04:09;;;;;;;7.68;3.17;;;640.10;1536.00;;;;;;4971035;28;20149;-74
2021/06/03 10:06:53;;;;;;;5.75;2.83;;;640.20;1561.60;;;;;;4954287;28;20072;-74
2021/06/03 10:09:39;;;;;;;4.65;3.00;;;640.10;1536.00;;;;;;4961072;28;20533;-75
2021/06/03 10:12:07;;;;;;;5.35;2.90;;;640.20;1587.20;;;;;;4970704;28;20027;-75
2021/06/03 10:14:33;;;;;;;7.53;3.45;;;640.00;1561.60;;;;;;4960001;28;20410;-76
2021/06/03 10:17:24;;;;;;;5.35;2.92;;;640.10;1587.20;;;;;;4951165;28;20042;-74
2021/06/03 10:19:52;;;;;;;5.57;3.10;;;640.40;1536.00;;;;;;4958892;28;20110;-74
2021/06/03 10:22:19;;;;;;;4.57;3.08;;;640.10;1536.00;;;;;;4969919;28;20027;-72
2021/06/03 10:25:06;;;;;;;4.30;3.28;;;640.20;1510.40;;;;;;4970903;28;20595;-80
2021/06/03 10:27:36;;;;;;;5.40;3.17;;;640.10;1510.40;;;;;;4970769;28;20058;-77
2021/06/03 10:30:07;;;;;;;5.17;3.00;;;640.40;1536.00;;;;;;4970506;28;20080;-75
2021/06/03 10:32:33;;;;;;;4.45;3.20;;;640.70;1536.00;;;;;;4958093;28;20481;-75
2021/06/03 10:35:00;;;;;;;5.28;3.20;;;665.60;1536.00;;;;;;4970390;28;20089;-75
2021/06/03 10:37:27;;;;;;;5.95;3.00;;;640.90;1536.00;;;;;;4970620;28;20080;-78
2021/06/03 10:39:55;;;;;;;9.77;3.25;;;640.70;1484.80;;;;;;4970329;28;20110;-74
2021/06/03 10:42:22;;;;;;;6.88;3.08;;;665.60;1561.60;;;;;;4970321;28;20041;-75
2021/06/03 10:44:49;;;;;;;6.50;3.20;;;665.60;1510.40;;;;;;4971189;28;20544;-74
2021/06/03 10:47:15;;;;;;;8.38;3.72;;;665.70;1536.00;;;;;;4970423;28;20022;-74
2021/06/03 10:49:42;;;;;;;5.13;2.97;;;665.80;1510.40;;;;;;4970729;28;20027;-73
2021/06/03 10:52:09;;;;;;;6.05;3.10;;;665.90;1510.40;;;;;;4971028;28;20023;-73
2021/06/03 10:54:42;;;;;;;5.07;2.90;;;665.80;1484.80;;;;;;4970140;28;20031;-74
2021/06/03 10:57:09;;;;;;;9.40;3.00;;;665.70;1510.40;;;;;;4969978;28;20485;-75
2021/06/03 10:59:37;;;;;;;5.75;2.72;;;665.60;1484.80;;;;;;4970094;28;20647;-74
2021/06/03 11:02:04;;;;;;;6.00;3.17;;;640.90;1433.60;;;;;;4969940;28;20106;-74
2021/06/03 11:04:32;;;;;;;5.95;3.38;;;640.90;1459.20;;;;;;4969022;28;20362;-73
2021/06/03 11:06:58;;;;;;;5.45;3.17;;;640.80;1459.20;;;;;;4965247;28;20027;-82
2021/06/03 11:09:36;;;;;;;5.72;2.90;;;640.90;1510.40;;;;;;4965734;28;20038;-77
2021/06/03 11:12:09;;;;;;;5.63;3.00;;;665.70;1459.20;;;;;;4952398;28;20027;-74
2021/06/03 11:15:03;;;;;;;7.22;3.00;;;665.60;1484.80;;;;;;4957529;28;20023;-73
2021/06/03 11:17:55;;;;;;;5.97;2.83;;;665.60;1484.80;;;;;;4957096;28;20028;-75
2021/06/03 11:20:44;;;;;;;5.57;3.08;;;640.90;1433.60;;;;;;4951669;28;20023;-76
2021/06/03 11:23:35;;;;;;;6.03;3.00;;;640.50;1459.20;;;;;;4954345;28;20023;-74
2021/06/03 11:26:01;;;;;;;4.75;3.10;;;640.50;1484.80;;;;;;4952298;28;20030;-72
2021/06/03 11:28:27;;;;;;;4.85;2.90;;;640.90;1459.20;;;;;;4952502;28;20042;-75
2021/06/03 11:34:05;;;;;;;5.63;2.80;;;640.90;1459.20;;;;;;4981338;26;20426;-75
2021/06/03 11:36:32;;;;;;;6.03;2.90;;;640.50;1459.20;;;;;;4989256;28;20560;-75
2021/06/03 11:38:58;;;;;;;7.22;3.75;;;640.30;1484.80;;;;;;4987562;28;20084;-82
2021/06/03 11:41:39;;;;;;;10.00;6.18;;;640.40;1484.80;;;;;;4971990;28;20026;-75
2021/06/03 11:44:11;;;;;;;4.85;2.83;;;640.50;1510.40;;;;;;4988353;28;20022;-80
2021/06/03 11:46:49;;;;;;;5.70;3.08;;;640.50;1510.40;;;;;;4986911;28;20031;-74
2021/06/03 11:49:33;;;;;;;5.25;3.20;;;640.70;1484.80;;;;;;4989594;28;20018;-77
2021/06/03 11:52:19;;;;;;;5.07;3.03;;;640.60;1484.80;;;;;;4984774;28;20033;-78
2021/06/03 11:54:58;;;;;;;5.57;2.80;;;640.60;1484.80;;;;;;4989303;28;20022;-77
2021/06/03 11:57:30;;;;;;;4.72;2.88;;;640.50;1459.20;;;;;;4989153;28;20071;-76
2021/06/03 12:00:07;;;;;;;6.63;2.90;;;640.40;1484.80;;;;;;4989300;28;20058;-76
2021/06/03 12:02:37;;;;;;;7.00;3.13;;;640.10;1484.80;;;;;;4988637;28;20030;-77
2021/06/03 12:05:09;;;;;;;4.68;3.13;;;640.30;1484.80;;;;;;4988385;28;20452;-78
2021/06/03 12:07:42;;;;;;;6.05;3.30;;;640.60;1459.20;;;;;;4988946;28;20045;-78
2021/06/03 12:10:08;;;;;;;6.10;3.33;;;640.70;1510.40;;;;;;4989443;28;20026;-77
2021/06/03 12:12:35;;;;;;;6.63;3.25;;;640.90;1484.80;;;;;;4988680;28;20061;-74
2021/06/03 12:15:02;;;;;;;5.18;3.20;;;665.70;1510.40;;;;;;4989040;28;20026;-75
2021/06/03 12:17:27;;;;;;;4.85;2.97;;;665.60;1459.20;;;;;;4989698;28;20099;-74
2021/06/03 12:19:53;;;;;;;5.75;3.30;;;665.60;1510.40;;;;;;4989220;28;20050;-74
2021/06/03 12:22:21;;;;;;;5.53;3.20;;;640.90;1459.20;;;;;;4989996;28;20026;-73
2021/06/03 12:24:54;;;;;;;6.53;2.92;;;640.80;1484.80;;;;;;4989509;28;20415;-73
2021/06/03 12:27:32;;;;;;;6.45;3.53;;;665.70;1510.40;;;;;;4987042;28;20031;-73